Карточка аэропорта ULWC

Внимание!
Информация на этой странице в стадии наполнения.
Если вы не увидели какой-то информации, или заметили неточность - пожалуйста сообщите нам!
Спасибо!
Команда RU-STAFF
Название аэропортаЧереповец
Название аэропорта (англ.)Cherepovets
Превышение377 ft. (114.9 m.)
Координаты59°16.566', 38°1.1340000000001'
Высота перехода4000ft
Эшелон переходаQNH>=1013mm:FL50; QNH<1013=>977:FL60; QNH<977:FL70
Коды ответчика
Зона ОрВДСанкт-Петербург РПИ (ULLL)
Данные METARULWC 210900Z 18003MPS 9999 SCT036 M08/M11 Q1021 R21/920247 NOSIG RMK QFE755/1007
Проноз погоды (TAF)
NOTAMshow/hide NOTAM
AWOS   TABLE

Информация о ВПП


Диспетчерские позиции


Сценарии

Сценарий
Нет результатов.

Схемы

None

Спутниковое изображение